createdAt,value
2023-01-10T00:04:04.036Z,96687.66
2023-01-10T00:09:05.728Z,96718.59
2023-01-10T00:14:07.389Z,96717.13
2023-01-10T00:19:10.469Z,96716.00
2023-01-10T00:24:22.202Z,96714.81
2023-01-10T00:29:28.945Z,96728.38
2023-01-10T00:34:32.696Z,96739.66
2023-01-10T00:39:34.373Z,96747.88
2023-01-10T00:44:36.036Z,96751.44
2023-01-10T00:49:37.699Z,96763.91
2023-01-10T00:54:39.388Z,96771.50
2023-01-10T00:59:41.063Z,96780.19
2023-01-10T01:04:42.754Z,96790.16
2023-01-10T01:10:03.124Z,96786.63
2023-01-10T01:15:05.477Z,96808.91
2023-01-10T01:20:08.185Z,96817.44
2023-01-10T01:25:10.082Z,96822.88
2023-01-10T01:30:12.578Z,96837.53
2023-01-10T01:35:15.719Z,96854.16
2023-01-10T01:40:20.807Z,96850.34
2023-01-10T01:45:22.418Z,96860.47
2023-01-10T01:50:34.518Z,96860.59
2023-01-10T01:55:38.567Z,96870.97
2023-01-10T02:00:40.502Z,96878.84
2023-01-10T02:05:43.839Z,96886.28
2023-01-10T02:10:54.877Z,96886.28
2023-01-10T02:15:56.558Z,96892.84
2023-01-10T02:21:14.023Z,96909.63
2023-01-10T02:26:33.994Z,96902.56
2023-01-10T02:31:51.824Z,96903.84
2023-01-10T02:37:05.728Z,96905.16
2023-01-10T02:42:10.625Z,96908.97
2023-01-10T02:47:13.970Z,96916.38
2023-01-10T02:52:35.958Z,96933.94
2023-01-10T02:57:58.514Z,96945.22
2023-01-10T03:03:18.780Z,96956.84
2023-01-10T03:08:34.958Z,96966.78
2023-01-10T03:13:39.492Z,96959.47
2023-01-10T03:18:48.107Z,96974.09
2023-01-10T03:23:54.000Z,96979.31
2023-01-10T03:29:02.017Z,96987.63
2023-01-10T03:34:03.760Z,96993.75
2023-01-10T03:39:32.828Z,97015.09
2023-01-10T03:44:51.807Z,97025.69
2023-01-10T03:50:06.487Z,97029.25
2023-01-10T03:55:12.650Z,97046.00
2023-01-10T04:00:16.492Z,97050.03
2023-01-10T04:05:18.208Z,97065.00
2023-01-10T04:10:21.112Z,97069.13
2023-01-10T04:15:22.714Z,97074.31
2023-01-10T04:20:27.864Z,97080.34
2023-01-10T04:25:29.603Z,97087.88
2023-01-10T04:30:31.264Z,97090.84
2023-01-10T04:35:32.926Z,97104.53
2023-01-10T04:40:34.608Z,97109.97
2023-01-10T04:45:36.446Z,97123.78
2023-01-10T04:50:38.418Z,97130.84
2023-01-10T04:55:40.108Z,97148.19
2023-01-10T05:00:42.060Z,97147.03
2023-01-10T05:05:43.828Z,97161.06
2023-01-10T05:10:45.516Z,97171.94
2023-01-10T05:15:47.139Z,97182.78
2023-01-10T05:20:48.824Z,97201.56
2023-01-10T05:25:50.537Z,97203.19
2023-01-10T05:30:52.479Z,97209.09
2023-01-10T05:35:54.126Z,97222.44
2023-01-10T05:40:59.020Z,97225.47
2023-01-10T05:46:00.929Z,97238.81
2023-01-10T05:51:03.719Z,97255.94
2023-01-10T05:56:07.642Z,97262.19
2023-01-10T06:01:10.127Z,97273.06
2023-01-10T06:06:12.299Z,97284.72
2023-01-10T06:11:13.989Z,97289.34
2023-01-10T06:16:15.662Z,97302.91
2023-01-10T06:21:17.577Z,97305.25
2023-01-10T06:26:19.391Z,97329.81
2023-01-10T06:31:22.748Z,97343.72
2023-01-10T06:36:24.554Z,97349.00
2023-01-10T06:41:26.379Z,97362.56
2023-01-10T06:46:28.084Z,97384.72
2023-01-10T06:51:29.823Z,97393.69
2023-01-10T06:56:31.610Z,97402.69
2023-01-10T07:01:33.462Z,97428.13
2023-01-10T07:06:37.467Z,97431.00
2023-01-10T07:11:39.198Z,97444.41
2023-01-10T07:16:40.872Z,97455.88
2023-01-10T07:21:42.623Z,97479.84
2023-01-10T07:26:44.289Z,97484.81
2023-01-10T07:31:45.968Z,97500.25
2023-01-10T07:36:47.787Z,97515.81
2023-01-10T07:41:50.272Z,97533.50
2023-01-10T07:46:51.871Z,97536.63
2023-01-10T07:51:53.535Z,97544.53
2023-01-10T07:56:55.297Z,97550.13
2023-01-10T08:01:56.953Z,97560.34
2023-01-10T08:06:58.804Z,97564.03
2023-01-10T08:12:00.493Z,97576.94
2023-01-10T08:17:02.138Z,97587.34
2023-01-10T08:22:03.978Z,97601.09
2023-01-10T08:27:05.846Z,97601.81
2023-01-10T08:32:07.922Z,97606.81
2023-01-10T08:37:13.885Z,97615.19
2023-01-10T08:42:16.910Z,97630.88
2023-01-10T08:47:18.602Z,97639.03
2023-01-10T08:52:20.843Z,97636.44
2023-01-10T08:57:22.534Z,97645.22
2023-01-10T09:02:24.338Z,97650.19
2023-01-10T09:07:26.132Z,97663.09
2023-01-10T09:12:47.179Z,97677.28
2023-01-10T09:17:50.018Z,97674.28
2023-01-10T09:22:51.915Z,97683.06
2023-01-10T09:27:58.950Z,97677.22
2023-01-10T09:33:01.091Z,97697.25
2023-01-10T09:38:03.811Z,97715.41
2023-01-10T09:43:37.900Z,97726.22
2023-01-10T09:49:15.239Z,97742.75
2023-01-10T09:54:31.608Z,97742.66
2023-01-10T09:59:38.562Z,97760.94
2023-01-10T10:04:41.449Z,97743.56
2023-01-10T10:09:43.291Z,97745.91
2023-01-10T10:15:08.184Z,97747.56
2023-01-10T10:20:35.507Z,97738.06
2023-01-10T10:26:05.758Z,97742.06
2023-01-10T10:31:38.838Z,97731.44
2023-01-10T10:36:50.724Z,97729.03
2023-01-10T10:41:55.922Z,97719.44
2023-01-10T10:46:59.581Z,97728.50
2023-01-10T10:52:03.792Z,97735.13
2023-01-10T10:57:05.534Z,97740.03
2023-01-10T11:02:23.177Z,97747.59
2023-01-10T11:07:28.272Z,97747.66
2023-01-10T11:12:35.239Z,97765.47
2023-01-10T11:17:41.072Z,97753.53
2023-01-10T11:22:55.354Z,97753.69
2023-01-10T11:28:00.973Z,97771.81
2023-01-10T11:33:07.733Z,97770.63
2023-01-10T11:38:22.058Z,97771.53
2023-01-10T11:43:36.442Z,97760.78
2023-01-10T11:49:05.730Z,97758.84
2023-01-10T11:54:17.441Z,97754.44
2023-01-10T11:59:19.392Z,97754.44
2023-01-10T12:04:23.059Z,97755.78
2023-01-10T12:09:42.974Z,97740.69
2023-01-10T12:14:46.084Z,97744.00
2023-01-10T12:19:48.493Z,97754.78
2023-01-10T12:24:52.357Z,97757.06
2023-01-10T12:30:11.708Z,97757.66
2023-01-10T12:35:20.781Z,97767.25
2023-01-10T12:40:47.604Z,97761.97
2023-01-10T12:45:57.499Z,97780.53
2023-01-10T12:51:05.167Z,97766.53
2023-01-10T12:56:13.227Z,97763.66
2023-01-10T13:01:18.044Z,97782.19
2023-01-10T13:06:35.082Z,97778.09
2023-01-10T13:11:50.633Z,97779.63
2023-01-10T13:17:04.712Z,97793.25
2023-01-10T13:22:21.869Z,97779.97
2023-01-10T13:27:32.661Z,97805.34
2023-01-10T13:32:36.415Z,97805.56
2023-01-10T13:37:41.442Z,97807.16
2023-01-10T13:43:18.661Z,97805.06
2023-01-10T13:48:26.889Z,97802.63
2023-01-10T13:53:28.674Z,97798.09
2023-01-10T13:58:59.953Z,97797.47
2023-01-10T14:04:02.059Z,97798.53
2023-01-10T14:09:12.493Z,97782.00
2023-01-10T14:14:22.120Z,97789.47
2023-01-10T14:19:29.000Z,97786.59
2023-01-10T14:24:41.540Z,97787.44
2023-01-10T14:29:51.302Z,97778.78
2023-01-10T14:34:53.054Z,97779.56
2023-01-10T14:39:56.157Z,97781.63
2023-01-10T14:45:19.587Z,97783.28
2023-01-10T14:50:32.657Z,97783.28
2023-01-10T14:55:34.687Z,97782.84
2023-01-10T15:00:36.738Z,97783.28
2023-01-10T15:05:46.061Z,97779.34
2023-01-10T15:10:51.917Z,97774.38
2023-01-10T15:15:54.445Z,97772.03
2023-01-10T15:20:57.365Z,97777.63
2023-01-10T15:26:03.349Z,97777.00
2023-01-10T15:31:06.658Z,97768.47
2023-01-10T15:36:14.002Z,97778.78
2023-01-10T15:41:19.615Z,97773.34
2023-01-10T15:46:24.397Z,97776.63
2023-01-10T15:51:34.605Z,97786.13
2023-01-10T15:56:46.690Z,97775.19
2023-01-10T16:02:17.659Z,97776.84
2023-01-10T16:07:43.628Z,97778.41
2023-01-10T16:13:04.041Z,97768.84
2023-01-10T16:18:05.998Z,97774.44
2023-01-10T16:23:15.933Z,97767.72
2023-01-10T16:28:20.243Z,97761.22
2023-01-10T16:33:27.512Z,97759.19
2023-01-10T16:38:29.600Z,97758.66
2023-01-10T16:43:31.317Z,97770.13
2023-01-10T16:48:33.487Z,97760.75
2023-01-10T16:53:35.217Z,97760.50
2023-01-10T16:58:36.901Z,97743.84
2023-01-10T17:03:39.145Z,97742.38
2023-01-10T17:08:41.383Z,97730.53
2023-01-10T17:13:45.278Z,97727.31
2023-01-10T17:18:47.645Z,97727.47
2023-01-10T17:23:50.527Z,97719.72
2023-01-10T17:28:52.142Z,97722.00
2023-01-10T17:33:53.838Z,97731.03
2023-01-10T17:38:59.609Z,97736.38
2023-01-10T17:44:01.648Z,97731.66
2023-01-10T17:49:03.560Z,97730.91
2023-01-10T17:54:05.430Z,97730.50
2023-01-10T17:59:07.461Z,97729.88
2023-01-10T18:04:09.264Z,97733.06
2023-01-10T18:09:10.995Z,97732.91
2023-01-10T18:14:31.247Z,97729.41
2023-01-10T18:19:33.522Z,97734.81
2023-01-10T18:24:35.231Z,97717.78
2023-01-10T18:29:36.855Z,97729.63
2023-01-10T18:34:38.547Z,97725.50
2023-01-10T18:39:40.635Z,97723.38
2023-01-10T18:44:42.319Z,97716.06
2023-01-10T18:49:44.103Z,97711.09
2023-01-10T18:54:47.470Z,97711.69
2023-01-10T18:59:49.383Z,97718.38
2023-01-10T19:04:51.502Z,97716.72
2023-01-10T19:09:53.223Z,97706.94
2023-01-10T19:14:56.891Z,97709.38
2023-01-10T19:19:58.802Z,97706.13
2023-01-10T19:25:00.476Z,97700.34
2023-01-10T19:30:02.096Z,97700.19
2023-01-10T19:35:07.836Z,97699.53
2023-01-10T19:40:10.152Z,97691.63
2023-01-10T19:45:11.998Z,97679.75
2023-01-10T19:50:13.771Z,97677.25
2023-01-10T19:55:16.027Z,97676.38
2023-01-10T20:00:18.242Z,97671.59
2023-01-10T20:05:20.163Z,97667.25
2023-01-10T20:10:22.068Z,97668.69
2023-01-10T20:15:23.998Z,97654.75
2023-01-10T20:20:25.734Z,97652.03
2023-01-10T20:25:27.929Z,97654.16
2023-01-10T20:30:29.552Z,97661.25
2023-01-10T20:35:31.437Z,97659.31
2023-01-10T20:40:33.329Z,97660.38
2023-01-10T20:45:35.218Z,97653.28
2023-01-10T20:50:37.077Z,97645.44
2023-01-10T20:55:38.811Z,97646.31
2023-01-10T21:00:40.482Z,97633.78
2023-01-10T21:05:48.839Z,97624.00
2023-01-10T21:10:51.499Z,97625.00
2023-01-10T21:15:57.761Z,97621.63
2023-01-10T21:21:00.077Z,97617.06
2023-01-10T21:26:07.096Z,97613.06
2023-01-10T21:31:10.499Z,97617.47
2023-01-10T21:36:13.485Z,97604.94
2023-01-10T21:41:36.526Z,97611.63
2023-01-10T21:46:38.489Z,97611.19
2023-01-10T21:51:40.280Z,97609.75
2023-01-10T21:56:42.080Z,97603.28
2023-01-10T22:01:44.820Z,97594.09
2023-01-10T22:06:46.580Z,97584.09
2023-01-10T22:11:48.304Z,97598.91
2023-01-10T22:16:49.964Z,97589.50
2023-01-10T22:21:51.687Z,97592.00
2023-01-10T22:26:54.847Z,97576.34
2023-01-10T22:31:56.838Z,97575.91
2023-01-10T22:36:59.160Z,97568.16
2023-01-10T22:42:00.875Z,97569.38
2023-01-10T22:47:02.686Z,97561.03
2023-01-10T22:52:08.296Z,97565.19
2023-01-10T22:57:09.979Z,97569.75
2023-01-10T23:02:11.785Z,97561.63
2023-01-10T23:07:13.809Z,97558.47
2023-01-10T23:12:15.515Z,97553.84
2023-01-10T23:17:17.192Z,97555.44
2023-01-10T23:22:19.306Z,97538.31
2023-01-10T23:27:21.224Z,97531.25
2023-01-10T23:32:25.772Z,97530.81
2023-01-10T23:37:27.877Z,97533.66
2023-01-10T23:42:29.520Z,97518.16
2023-01-10T23:47:31.808Z,97521.16
2023-01-10T23:52:33.547Z,97522.59
2023-01-10T23:57:35.265Z,97519.19
